Time;durP1;ratioP1;P1;durP2;ratioP2;P2;SDS_P1;SDS_P2;PMS_P1;PMS_P2;Temp;Humidity;BMP_temperature;BMP_pressure;BME280_temperature;BME280_humidity;BME280_pressure;Samples;Min_cycle;Max_cycle;Signal;HPM_P1;HPM_P2
2023/09/08 00:01:04;;;;;;;27.95;25.38;;;23.70;99.90;;;;;;4869542;29;20121;-90
2023/09/08 00:03:30;;;;;;;28.45;25.75;;;23.70;99.90;;;;;;4869778;29;20047;-91
2023/09/08 00:06:00;;;;;;;28.48;25.40;;;23.70;99.90;;;;;;4869823;29;20120;-90
2023/09/08 00:08:26;;;;;;;28.88;25.85;;;23.70;99.90;;;;;;4854295;29;20085;-90
2023/09/08 00:10:53;;;;;;;27.75;25.20;;;23.70;99.90;;;;;;4866558;29;20036;-90
2023/09/08 00:13:20;;;;;;;28.23;25.40;;;23.70;99.90;;;;;;4865860;29;20044;-89
2023/09/08 00:15:53;;;;;;;28.00;25.20;;;23.70;99.90;;;;;;4866354;29;20111;-89
2023/09/08 00:18:22;;;;;;;28.80;26.10;;;23.70;99.90;;;;;;4866217;29;20124;-90
2023/09/08 00:20:49;;;;;;;28.42;25.63;;;23.70;99.90;;;;;;4866727;29;20039;-89
2023/09/08 00:23:15;;;;;;;28.40;25.75;;;23.60;99.90;;;;;;4866332;29;20044;-90
2023/09/08 00:25:41;;;;;;;31.85;25.92;;;23.60;99.90;;;;;;4866343;29;20029;-90
2023/09/08 00:28:08;;;;;;;29.25;26.20;;;23.60;99.90;;;;;;4851133;29;20029;-91
2023/09/08 00:30:34;;;;;;;28.90;25.90;;;23.60;99.90;;;;;;4866788;29;20036;-90
2023/09/08 00:33:01;;;;;;;29.15;26.10;;;23.60;99.90;;;;;;4866063;29;20036;-90
2023/09/08 00:35:30;;;;;;;27.55;24.80;;;23.60;99.90;;;;;;4866487;29;20029;-90
2023/09/08 00:37:57;;;;;;;27.95;25.27;;;23.50;99.90;;;;;;4876513;29;20052;-90
2023/09/08 00:40:28;;;;;;;28.52;25.60;;;23.50;99.90;;;;;;4869297;29;20103;-90
2023/09/08 00:42:54;;;;;;;29.73;25.00;;;23.50;99.90;;;;;;4869202;29;20040;-91
2023/09/08 00:45:21;;;;;;;27.20;24.38;;;23.50;99.90;;;;;;4868957;29;20586;-90
2023/09/08 00:47:47;;;;;;;28.20;24.85;;;23.50;99.90;;;;;;4875926;29;20524;-89
2023/09/08 00:50:15;;;;;;;26.58;24.08;;;23.50;99.90;;;;;;4900082;29;20064;-90
2023/09/08 00:52:41;;;;;;;26.15;23.55;;;23.50;99.90;;;;;;4884033;29;20088;-89
2023/09/08 00:55:08;;;;;;;27.35;24.30;;;23.60;99.90;;;;;;4884185;29;20033;-90
2023/09/08 00:57:35;;;;;;;26.05;23.40;;;23.50;99.90;;;;;;4884085;29;20131;-89
2023/09/08 01:00:05;;;;;;;26.35;23.75;;;23.50;99.90;;;;;;4883962;29;20084;-90
2023/09/08 01:02:32;;;;;;;27.30;24.38;;;23.50;99.90;;;;;;4883845;29;20170;-89
2023/09/08 01:04:59;;;;;;;25.48;23.02;;;23.50;99.90;;;;;;4884104;29;20438;-90
2023/09/08 01:07:29;;;;;;;26.38;23.60;;;23.50;99.90;;;;;;4883570;29;20032;-89
2023/09/08 01:09:56;;;;;;;26.70;23.33;;;23.50;99.90;;;;;;4899765;29;20031;-91
2023/09/08 01:12:24;;;;;;;26.23;23.48;;;23.50;99.90;;;;;;4883327;29;20037;-90
2023/09/08 01:14:50;;;;;;;25.58;23.10;;;23.50;99.90;;;;;;4871677;29;20040;-89
2023/09/08 01:17:16;;;;;;;26.35;23.63;;;23.50;99.90;;;;;;4880526;29;20029;-90
2023/09/08 01:19:46;;;;;;;25.20;22.90;;;23.40;99.90;;;;;;4880493;29;20037;-91
2023/09/08 01:22:31;;;;;;;24.65;22.35;;;23.40;99.90;;;;;;4880093;29;20029;-90
2023/09/08 01:25:07;;;;;;;25.20;22.92;;;23.50;99.90;;;;;;4881112;29;20037;-81
2023/09/08 01:27:35;;;;;;;25.25;23.05;;;23.40;99.90;;;;;;4881812;29;20048;-82
2023/09/08 01:30:07;;;;;;;24.75;22.63;;;23.40;99.90;;;;;;4880809;29;20080;-82
2023/09/08 01:32:35;;;;;;;26.60;23.73;;;23.50;99.90;;;;;;4880746;29;20067;-82
2023/09/08 01:35:02;;;;;;;25.60;22.98;;;23.40;99.90;;;;;;4879862;29;20035;-82
2023/09/08 01:37:28;;;;;;;24.52;22.33;;;23.40;99.90;;;;;;4902065;29;20119;-82
2023/09/08 01:39:55;;;;;;;30.33;23.08;;;23.40;99.90;;;;;;4882905;29;20134;-82
2023/09/08 01:42:21;;;;;;;28.67;22.48;;;23.40;99.90;;;;;;4882948;29;20486;-82
2023/09/08 01:44:48;;;;;;;24.08;22.00;;;23.40;99.90;;;;;;4882483;29;20103;-81
2023/09/08 01:47:16;;;;;;;22.77;20.67;;;23.40;99.90;;;;;;4882539;29;20051;-81
2023/09/08 01:49:42;;;;;;;23.75;21.60;;;23.30;99.90;;;;;;4883320;29;20032;-82
2023/09/08 01:52:09;;;;;;;23.42;21.13;;;23.30;99.90;;;;;;4882837;29;20029;-82
2023/09/08 01:54:35;;;;;;;24.23;21.98;;;23.20;99.90;;;;;;4882737;29;20112;-82
2023/09/08 01:57:02;;;;;;;22.73;20.83;;;23.20;99.90;;;;;;4882510;29;20502;-82
2023/09/08 01:59:29;;;;;;;23.15;20.98;;;23.20;99.90;;;;;;4882002;29;20068;-82
2023/09/08 02:02:04;;;;;;;27.73;21.38;;;23.20;99.90;;;;;;4897729;29;20707;-81
2023/09/08 02:04:31;;;;;;;23.75;20.83;;;23.20;99.90;;;;;;4882660;29;20044;-82
2023/09/08 02:06:58;;;;;;;23.20;21.02;;;23.20;99.90;;;;;;4881183;29;20056;-82
2023/09/08 02:09:35;;;;;;;22.92;20.73;;;23.20;99.90;;;;;;4879558;29;20443;-82
2023/09/08 02:12:03;;;;;;;22.88;20.70;;;23.20;99.90;;;;;;4879412;29;20498;-82
2023/09/08 02:14:30;;;;;;;22.00;20.17;;;23.10;99.90;;;;;;4879394;29;20398;-82
2023/09/08 02:16:57;;;;;;;23.02;20.75;;;23.10;99.90;;;;;;4881112;29;20033;-81
2023/09/08 02:19:24;;;;;;;23.45;21.17;;;23.10;99.90;;;;;;4882688;29;20402;-82
2023/09/08 02:21:53;;;;;;;22.48;20.23;;;23.00;99.90;;;;;;4882511;29;20028;-81
2023/09/08 02:24:20;;;;;;;22.48;20.50;;;22.90;99.90;;;;;;4882877;29;20033;-82
2023/09/08 02:26:46;;;;;;;21.42;19.33;;;23.00;99.90;;;;;;4897188;29;20024;-81
2023/09/08 02:29:13;;;;;;;22.20;19.92;;;23.00;99.90;;;;;;4897850;29;20080;-81
2023/09/08 02:31:40;;;;;;;21.65;19.67;;;23.00;99.90;;;;;;4882446;29;20124;-82
2023/09/08 02:34:08;;;;;;;22.38;20.08;;;22.90;99.90;;;;;;4882452;29;20123;-81
2023/09/08 02:36:34;;;;;;;21.67;19.48;;;23.00;99.90;;;;;;4897899;29;20489;-82
2023/09/08 02:39:01;;;;;;;21.55;19.77;;;23.00;99.90;;;;;;4865146;29;20091;-82
2023/09/08 02:41:28;;;;;;;21.25;19.48;;;23.00;99.90;;;;;;4879466;29;20108;-82
2023/09/08 02:43:55;;;;;;;21.98;19.70;;;22.90;99.90;;;;;;4879444;29;20033;-82
2023/09/08 02:46:21;;;;;;;22.27;20.27;;;22.80;99.90;;;;;;4863859;29;20029;-82
2023/09/08 02:48:48;;;;;;;22.27;19.88;;;22.90;99.90;;;;;;4879013;29;20060;-82
2023/09/08 02:51:14;;;;;;;21.63;19.60;;;22.80;99.90;;;;;;4878930;29;20025;-82
2023/09/08 02:53:41;;;;;;;21.45;19.40;;;22.80;99.90;;;;;;4879102;29;20032;-82
2023/09/08 02:56:09;;;;;;;22.30;19.98;;;22.90;99.90;;;;;;4878822;29;20061;-82
2023/09/08 02:58:38;;;;;;;22.13;20.13;;;22.80;99.90;;;;;;4876203;29;20044;-81
2023/09/08 03:01:13;;;;;;;20.35;18.83;;;22.80;99.90;;;;;;4897487;29;20035;-82
2023/09/08 03:03:41;;;;;;;21.55;19.65;;;22.80;99.90;;;;;;4882029;29;20123;-82
2023/09/08 03:06:08;;;;;;;21.90;19.73;;;22.70;99.90;;;;;;4881773;29;20021;-82
2023/09/08 03:08:38;;;;;;;21.25;19.35;;;22.60;99.90;;;;;;4868202;29;20048;-82
2023/09/08 03:11:08;;;;;;;21.73;19.58;;;22.60;99.90;;;;;;4879715;29;20095;-82
2023/09/08 03:13:35;;;;;;;21.42;19.50;;;22.60;99.90;;;;;;4879333;29;20063;-81
2023/09/08 03:16:04;;;;;;;20.70;18.88;;;22.60;99.90;;;;;;4881340;29;20493;-81
2023/09/08 03:18:32;;;;;;;21.13;19.02;;;22.60;99.90;;;;;;4882727;29;20037;-81
2023/09/08 03:21:08;;;;;;;21.35;19.45;;;22.60;99.90;;;;;;4882455;29;20044;-81
2023/09/08 03:23:39;;;;;;;20.60;18.55;;;22.50;99.90;;;;;;4881753;29;20037;-81
2023/09/08 03:26:06;;;;;;;20.90;18.98;;;22.60;99.90;;;;;;4881254;29;20057;-81
2023/09/08 03:28:34;;;;;;;20.83;18.95;;;22.50;99.90;;;;;;4881020;29;20461;-80
2023/09/08 03:31:04;;;;;;;20.75;18.80;;;22.50;99.90;;;;;;4880843;29;20037;-81
2023/09/08 03:33:33;;;;;;;20.52;18.55;;;22.50;99.90;;;;;;4896479;29;20029;-81
2023/09/08 03:36:01;;;;;;;20.80;18.80;;;22.50;99.90;;;;;;4896317;29;20100;-82
2023/09/08 03:38:29;;;;;;;19.75;18.08;;;22.50;99.90;;;;;;4893866;29;20109;-81
2023/09/08 03:40:56;;;;;;;20.00;18.05;;;22.50;99.90;;;;;;4883975;29;20064;-82
2023/09/08 03:43:22;;;;;;;19.40;17.50;;;22.50;99.90;;;;;;4899634;29;20037;-81
2023/09/08 03:45:51;;;;;;;21.13;18.10;;;22.50;99.90;;;;;;4899114;29;20035;-80
2023/09/08 03:48:18;;;;;;;19.85;17.77;;;22.40;99.90;;;;;;4888144;29;20372;-80
2023/09/08 03:50:45;;;;;;;19.40;17.48;;;22.40;99.90;;;;;;4880505;29;20037;-80
2023/09/08 03:53:13;;;;;;;18.58;16.95;;;22.30;99.90;;;;;;4880390;29;20510;-80
2023/09/08 03:55:39;;;;;;;18.60;17.00;;;22.40;99.90;;;;;;4881253;29;20471;-80
2023/09/08 03:58:05;;;;;;;19.10;17.10;;;22.30;99.90;;;;;;4888377;29;20040;-80
2023/09/08 04:00:32;;;;;;;16.80;15.30;;;22.30;99.90;;;;;;4898494;29;20495;-80
2023/09/08 04:02:58;;;;;;;17.92;16.35;;;22.20;99.90;;;;;;4898944;29;20037;-80
2023/09/08 04:05:25;;;;;;;18.10;16.42;;;22.20;99.90;;;;;;4883067;29;20103;-80
2023/09/08 04:07:51;;;;;;;16.85;15.38;;;22.20;99.90;;;;;;4891638;29;20054;-80
2023/09/08 04:10:18;;;;;;;16.48;15.02;;;22.20;99.90;;;;;;4864249;29;20081;-80
2023/09/08 04:12:47;;;;;;;17.30;15.68;;;22.20;99.90;;;;;;4864278;29;20033;-80
2023/09/08 04:15:14;;;;;;;17.15;15.45;;;22.20;99.90;;;;;;4880969;29;20493;-79
2023/09/08 04:17:40;;;;;;;16.92;15.25;;;22.20;99.90;;;;;;4884979;29;20039;-79
2023/09/08 04:20:08;;;;;;;19.65;14.80;;;22.20;99.90;;;;;;4895074;29;20490;-80
2023/09/08 04:22:35;;;;;;;16.00;14.60;;;22.20;99.90;;;;;;4899544;29;20033;-80
2023/09/08 04:25:02;;;;;;;15.73;14.52;;;22.20;99.90;;;;;;4897744;29;20037;-80
2023/09/08 04:27:29;;;;;;;16.58;14.98;;;22.20;99.90;;;;;;4894767;29;20029;-80
2023/09/08 04:29:55;;;;;;;16.65;14.90;;;22.10;99.90;;;;;;4879316;29;20113;-80
2023/09/08 04:32:22;;;;;;;15.80;14.60;;;22.20;99.90;;;;;;4879359;29;20029;-80
2023/09/08 04:34:55;;;;;;;16.30;14.63;;;22.20;99.90;;;;;;4863875;29;20039;-80
2023/09/08 04:37:24;;;;;;;16.17;14.50;;;22.20;99.90;;;;;;4866269;29;20029;-81
2023/09/08 04:39:51;;;;;;;16.33;14.75;;;22.20;99.90;;;;;;4882350;29;20040;-81
2023/09/08 04:42:17;;;;;;;17.38;14.43;;;22.20;99.90;;;;;;4897993;29;20056;-81
2023/09/08 04:44:44;;;;;;;16.00;14.13;;;22.20;99.90;;;;;;4898044;29;20037;-81
2023/09/08 04:47:10;;;;;;;15.95;14.43;;;22.30;99.90;;;;;;4896604;29;20410;-81
2023/09/08 04:49:37;;;;;;;16.10;14.55;;;22.40;99.90;;;;;;4880274;29;20043;-81
2023/09/08 04:52:04;;;;;;;15.98;14.50;;;22.40;99.90;;;;;;4863738;29;20037;-80
2023/09/08 04:54:32;;;;;;;18.35;15.07;;;22.50;99.90;;;;;;4880246;29;20104;-81
2023/09/08 04:56:58;;;;;;;16.10;14.90;;;22.50;99.90;;;;;;4878050;29;20029;-80
2023/09/08 04:59:25;;;;;;;16.80;15.02;;;22.60;99.90;;;;;;4896848;29;20040;-81
2023/09/08 05:01:56;;;;;;;18.48;15.48;;;22.70;99.90;;;;;;4899590;29;20104;-81
2023/09/08 05:04:23;;;;;;;16.20;14.80;;;22.80;99.90;;;;;;4881948;29;20379;-81
2023/09/08 05:06:49;;;;;;;16.90;15.30;;;22.80;99.90;;;;;;4890115;29;20013;-81
2023/09/08 05:09:17;;;;;;;17.15;15.50;;;23.20;99.90;;;;;;4896812;29;20512;-81
2023/09/08 05:11:44;;;;;;;18.90;17.20;;;23.80;99.90;;;;;;4899542;29;20495;-81
2023/09/08 05:14:10;;;;;;;18.85;17.33;;;24.40;99.90;;;;;;4898460;29;20033;-80
2023/09/08 05:16:39;;;;;;;19.45;17.90;;;24.80;99.90;;;;;;4876202;29;20025;-81
2023/09/08 05:19:10;;;;;;;19.00;17.05;;;24.70;99.90;;;;;;4895387;29;20041;-81
2023/09/08 05:21:37;;;;;;;19.20;17.50;;;24.20;99.90;;;;;;4899437;29;20419;-81
2023/09/08 05:24:04;;;;;;;18.38;16.77;;;23.90;99.90;;;;;;4897159;29;20032;-81
2023/09/08 05:26:31;;;;;;;18.65;16.70;;;23.60;99.90;;;;;;4880909;29;20073;-81
2023/09/08 05:28:58;;;;;;;17.35;16.00;;;23.60;99.90;;;;;;4892966;29;20028;-90
2023/09/08 05:31:26;;;;;;;18.13;16.38;;;23.60;99.90;;;;;;4883787;29;20039;-92
2023/09/08 05:33:53;;;;;;;17.50;16.23;;;23.60;99.90;;;;;;4882857;29;20129;-92
2023/09/08 05:36:20;;;;;;;18.45;16.92;;;23.60;99.90;;;;;;4882067;29;20063;-93
2023/09/08 05:38:47;;;;;;;18.40;16.80;;;23.50;99.90;;;;;;4881170;29;20076;-91
2023/09/08 05:41:13;;;;;;;18.65;17.13;;;23.60;99.90;;;;;;4882656;29;20028;-93
2023/09/08 05:43:45;;;;;;;18.92;17.00;;;23.60;99.90;;;;;;4884004;29;20076;-93
2023/09/08 05:46:12;;;;;;;19.20;16.80;;;23.60;99.90;;;;;;4882977;29;20032;-92
2023/09/08 05:48:40;;;;;;;19.52;17.70;;;23.70;99.90;;;;;;4874148;29;20442;-92
2023/09/08 05:51:07;;;;;;;19.70;17.75;;;23.80;99.90;;;;;;4860863;29;20487;-89
2023/09/08 05:53:46;;;;;;;20.77;18.50;;;23.80;99.90;;;;;;4863372;29;20033;-91
2023/09/08 05:56:13;;;;;;;22.00;18.17;;;23.80;99.90;;;;;;4852018;29;20067;-92
2023/09/08 05:58:42;;;;;;;23.23;18.83;;;23.80;99.90;;;;;;4828143;29;20071;-94
2023/09/08 06:01:09;;;;;;;20.55;18.45;;;24.00;99.90;;;;;;4827867;29;20255;-92
2023/09/08 06:03:35;;;;;;;20.38;18.17;;;24.00;99.90;;;;;;4828348;29;20030;-94
2023/09/08 06:06:02;;;;;;;20.80;18.60;;;24.00;99.90;;;;;;4810863;29;20035;-93
2023/09/08 06:08:42;;;;;;;25.08;18.98;;;24.00;99.90;;;;;;4811609;29;20042;-94
2023/09/08 06:11:25;;;;;;;27.45;19.45;;;24.10;99.90;;;;;;4843990;29;20025;-93
2023/09/08 06:14:03;;;;;;;21.95;19.33;;;24.10;99.90;;;;;;4848739;29;20108;-91
2023/09/08 06:16:35;;;;;;;22.13;18.83;;;24.10;99.90;;;;;;4841737;29;20485;-91
2023/09/08 06:19:03;;;;;;;26.52;20.50;;;24.20;99.90;;;;;;4808147;29;20826;-92
2023/09/08 06:21:30;;;;;;;27.20;20.63;;;24.40;99.90;;;;;;4808193;29;20142;-93
2023/09/08 06:24:24;;;;;;;27.00;20.70;;;24.50;99.90;;;;;;4811514;29;20046;-74
2023/09/08 07:03:22;;;;;;;24.05;22.05;;;26.30;99.90;;;;;;5673732;23;20135;-87
2023/09/08 07:05:50;;;;;;;24.95;22.40;;;26.40;99.90;;;;;;4884695;29;20473;-85
2023/09/08 07:08:17;;;;;;;24.23;22.10;;;26.40;99.90;;;;;;4884850;29;20032;-84
2023/09/08 07:10:44;;;;;;;23.38;21.38;;;26.60;99.90;;;;;;4884982;29;20039;-87
2023/09/08 07:13:10;;;;;;;21.73;20.05;;;26.60;99.90;;;;;;4872596;29;20032;-87
2023/09/08 07:15:37;;;;;;;22.73;20.70;;;26.50;99.90;;;;;;4904022;29;20063;-87
2023/09/08 07:18:04;;;;;;;24.35;22.20;;;26.50;99.90;;;;;;4889763;29;20032;-87
2023/09/08 07:20:30;;;;;;;25.20;23.30;;;26.70;99.90;;;;;;4903791;29;20397;-87
2023/09/08 07:22:57;;;;;;;26.05;23.80;;;26.80;99.90;;;;;;4888034;29;20450;-86
2023/09/08 07:25:23;;;;;;;27.60;25.48;;;26.90;99.90;;;;;;4887557;29;20040;-87
2023/09/08 07:27:52;;;;;;;28.38;26.15;;;26.90;99.90;;;;;;4881638;29;20021;-86
2023/09/08 07:30:20;;;;;;;29.02;26.65;;;27.30;99.90;;;;;;4881755;29;20406;-86
2023/09/08 07:32:47;;;;;;;28.45;26.17;;;27.60;99.90;;;;;;4881121;29;20025;-88
2023/09/08 07:35:15;;;;;;;29.60;27.30;;;28.20;99.90;;;;;;4880904;29;20061;-87
2023/09/08 07:37:44;;;;;;;30.10;27.80;;;28.80;99.90;;;;;;4866281;29;20061;-88
2023/09/08 07:40:13;;;;;;;31.63;29.23;;;29.90;99.90;;;;;;4865873;29;20120;-87
2023/09/08 07:42:40;;;;;;;31.45;29.15;;;31.10;99.90;;;;;;4865928;29;20037;-89
2023/09/08 07:45:09;;;;;;;31.45;29.08;;;31.20;99.90;;;;;;4886452;29;20060;-85
2023/09/08 07:47:38;;;;;;;31.33;29.23;;;31.00;99.90;;;;;;4884872;29;20025;-91
2023/09/08 07:50:23;;;;;;;30.98;28.65;;;31.40;99.90;;;;;;4884919;29;20033;-91
2023/09/08 07:52:51;;;;;;;31.73;29.63;;;31.30;99.90;;;;;;4884803;29;20033;-91
2023/09/08 07:55:19;;;;;;;32.58;30.55;;;31.30;99.90;;;;;;4884449;29;20089;-91
2023/09/08 07:57:47;;;;;;;33.08;30.98;;;31.10;99.90;;;;;;4884158;29;20044;-89
2023/09/08 08:00:14;;;;;;;33.70;31.42;;;30.90;99.90;;;;;;4883626;29;20047;-91
2023/09/08 08:02:48;;;;;;;34.60;31.95;;;31.10;99.90;;;;;;4884423;29;20033;-91
2023/09/08 08:05:15;;;;;;;34.30;32.00;;;31.40;99.90;;;;;;4882032;29;20063;-91
2023/09/08 08:07:43;;;;;;;33.28;31.10;;;31.60;99.90;;;;;;4881214;29;20067;-91
2023/09/08 08:10:10;;;;;;;33.10;30.80;;;31.40;99.90;;;;;;4862668;29;20034;-91
2023/09/08 08:12:38;;;;;;;33.03;30.33;;;30.90;99.90;;;;;;4862522;29;20032;-91
2023/09/08 08:15:05;;;;;;;32.33;29.92;;;30.80;99.90;;;;;;4847299;29;20030;-91
2023/09/08 08:17:32;;;;;;;31.98;29.77;;;30.60;99.90;;;;;;4848267;29;20441;-91
2023/09/08 08:20:09;;;;;;;32.22;30.02;;;30.40;99.90;;;;;;4862607;29;20086;-91
2023/09/08 08:22:37;;;;;;;32.58;30.20;;;30.40;99.90;;;;;;4862543;29;20081;-91
2023/09/08 08:25:04;;;;;;;32.47;30.08;;;30.60;99.90;;;;;;4862027;29;20029;-88
2023/09/08 08:27:31;;;;;;;31.55;29.15;;;30.60;99.90;;;;;;4865347;29;20032;-88
2023/09/08 08:30:00;;;;;;;32.65;29.92;;;30.20;99.90;;;;;;4880555;29;20045;-88
2023/09/08 08:32:28;;;;;;;32.15;29.90;;;29.90;99.90;;;;;;4865190;29;20037;-88
2023/09/08 08:34:54;;;;;;;32.80;30.15;;;30.30;99.90;;;;;;4880597;29;20029;-88
2023/09/08 08:37:20;;;;;;;32.45;30.20;;;30.40;99.90;;;;;;4865165;29;20056;-88
2023/09/08 08:39:50;;;;;;;33.17;30.67;;;30.00;99.90;;;;;;4880500;29;20033;-88
2023/09/08 08:42:17;;;;;;;33.53;30.60;;;30.50;99.90;;;;;;4865086;29;20025;-89
2023/09/08 08:44:47;;;;;;;33.22;30.67;;;30.90;99.90;;;;;;4880541;29;20029;-88
2023/09/08 08:47:15;;;;;;;33.13;30.75;;;31.00;99.90;;;;;;4864857;29;20115;-88
2023/09/08 08:49:46;;;;;;;34.38;31.65;;;30.80;99.90;;;;;;4880244;29;20032;-88
2023/09/08 08:52:17;;;;;;;34.28;31.70;;;30.70;99.90;;;;;;4864883;29;20041;-89
2023/09/08 08:54:45;;;;;;;34.30;31.65;;;30.40;99.90;;;;;;4864711;29;20040;-88
2023/09/08 08:57:13;;;;;;;34.28;31.63;;;30.40;99.90;;;;;;4880269;29;20123;-88
2023/09/08 08:59:45;;;;;;;34.28;31.92;;;30.70;99.90;;;;;;4864746;29;20387;-89
2023/09/08 09:02:14;;;;;;;33.92;31.40;;;30.50;99.90;;;;;;4864746;29;20054;-88
2023/09/08 09:04:41;;;;;;;34.30;31.83;;;30.90;99.90;;;;;;4880038;29;20056;-88
2023/09/08 09:07:08;;;;;;;33.13;30.73;;;31.20;99.90;;;;;;4883122;29;20036;-88
2023/09/08 09:09:35;;;;;;;33.83;31.08;;;31.00;99.90;;;;;;4883576;29;20043;-88
2023/09/08 09:12:02;;;;;;;32.83;30.27;;;30.60;99.90;;;;;;4883105;29;20489;-88
2023/09/08 09:14:33;;;;;;;32.55;30.35;;;30.20;99.90;;;;;;4882614;29;20512;-88
2023/09/08 09:17:01;;;;;;;33.70;31.30;;;30.00;99.90;;;;;;4883132;29;20037;-88
2023/09/08 09:19:29;;;;;;;32.72;30.40;;;29.70;99.90;;;;;;4882993;29;20398;-87
2023/09/08 09:21:57;;;;;;;32.45;29.90;;;29.50;99.90;;;;;;4882940;29;20040;-87
2023/09/08 09:24:41;;;;;;;32.42;30.10;;;29.50;99.90;;;;;;4882623;29;20037;-88
2023/09/08 09:27:09;;;;;;;32.45;30.05;;;29.50;99.90;;;;;;4864295;29;20033;-87
2023/09/08 09:29:46;;;;;;;32.70;30.15;;;29.50;99.90;;;;;;4876332;29;20033;-88
2023/09/08 09:32:13;;;;;;;33.03;30.63;;;29.60;99.90;;;;;;4882876;29;20116;-88
2023/09/08 09:34:53;;;;;;;32.83;30.52;;;29.80;99.90;;;;;;4882271;29;20032;-88
2023/09/08 09:37:19;;;;;;;33.10;30.73;;;30.30;99.90;;;;;;4879811;29;20094;-88
2023/09/08 09:39:52;;;;;;;34.08;31.48;;;30.60;99.90;;;;;;4879860;29;20033;-88
2023/09/08 09:42:22;;;;;;;34.30;31.70;;;30.70;99.90;;;;;;4879665;29;20052;-88
2023/09/08 09:44:51;;;;;;;33.95;31.35;;;30.90;99.90;;;;;;4894587;29;20119;-88
2023/09/08 09:47:21;;;;;;;34.13;31.67;;;30.40;99.90;;;;;;4885800;29;20036;-87
2023/09/08 09:49:48;;;;;;;34.75;32.05;;;30.20;99.90;;;;;;4901364;29;20060;-88
2023/09/08 09:52:25;;;;;;;34.80;32.42;;;30.20;99.90;;;;;;4885620;29;20036;-88
2023/09/08 09:54:56;;;;;;;34.72;32.42;;;30.10;99.90;;;;;;4901205;29;20063;-88
2023/09/08 09:57:24;;;;;;;34.40;32.10;;;30.00;99.90;;;;;;4901145;29;20032;-87
2023/09/08 09:59:54;;;;;;;35.25;32.63;;;30.20;99.90;;;;;;4885544;29;20064;-88
2023/09/08 10:02:21;;;;;;;34.45;32.08;;;30.40;99.90;;;;;;4898917;29;20027;-88
2023/09/08 10:04:51;;;;;;;34.65;32.35;;;30.50;99.90;;;;;;4870379;29;20053;-88
2023/09/08 10:07:18;;;;;;;34.78;32.30;;;30.40;99.90;;;;;;4879218;29;20044;-86
2023/09/08 10:09:45;;;;;;;35.72;33.25;;;30.30;99.90;;;;;;4864156;29;20033;-88
2023/09/08 10:12:17;;;;;;;35.47;32.92;;;30.20;99.90;;;;;;4862927;29;20037;-78
2023/09/08 10:14:47;;;;;;;35.42;32.92;;;30.40;99.90;;;;;;4901518;29;20367;-78
2023/09/08 10:17:20;;;;;;;35.67;33.17;;;30.60;99.90;;;;;;4916654;29;20035;-78
2023/09/08 10:19:51;;;;;;;36.40;33.95;;;30.60;99.90;;;;;;4897547;29;20044;-78
2023/09/08 10:22:23;;;;;;;35.72;33.45;;;30.50;99.90;;;;;;4898870;29;20176;-78
2023/09/08 10:24:53;;;;;;;35.40;32.90;;;30.50;99.90;;;;;;4913161;29;20040;-78
2023/09/08 10:27:23;;;;;;;35.80;33.50;;;30.60;99.90;;;;;;4920500;29;20059;-78
2023/09/08 10:29:50;;;;;;;36.05;33.63;;;30.60;99.90;;;;;;4912026;29;20391;-78
2023/09/08 10:32:23;;;;;;;35.92;33.55;;;30.90;99.90;;;;;;4882719;29;20479;-79
2023/09/08 10:34:53;;;;;;;36.10;33.60;;;30.90;99.90;;;;;;4905612;29;20564;-78
2023/09/08 10:37:25;;;;;;;36.45;33.92;;;30.80;99.90;;;;;;4920381;29;20103;-79
2023/09/08 10:39:52;;;;;;;36.13;33.83;;;30.60;99.90;;;;;;4920215;29;20064;-79
2023/09/08 10:42:19;;;;;;;36.10;33.80;;;30.60;99.90;;;;;;4901684;29;20029;-79
2023/09/08 10:44:51;;;;;;;36.22;33.83;;;30.70;99.90;;;;;;4904110;29;20035;-78
2023/09/08 10:47:25;;;;;;;36.05;33.75;;;30.60;99.90;;;;;;4919959;29;20070;-78
2023/09/08 10:49:57;;;;;;;36.70;34.30;;;30.80;99.90;;;;;;4916933;29;20088;-79
2023/09/08 10:52:25;;;;;;;36.50;33.95;;;30.50;99.90;;;;;;4901166;29;20035;-79
2023/09/08 10:54:53;;;;;;;36.40;34.03;;;30.50;99.90;;;;;;4900734;29;20382;-80
2023/09/08 10:57:25;;;;;;;36.95;34.63;;;30.60;99.90;;;;;;4881728;29;20026;-79
2023/09/08 10:59:55;;;;;;;37.15;34.45;;;30.40;99.90;;;;;;4881463;29;20570;-79
2023/09/08 11:02:38;;;;;;;36.63;34.33;;;30.40;99.90;;;;;;4882437;29;20033;-79
2023/09/08 11:05:11;;;;;;;36.38;33.83;;;30.30;99.90;;;;;;4908069;29;20048;-79
2023/09/08 11:07:38;;;;;;;35.55;33.22;;;30.30;99.90;;;;;;4919798;29;20036;-79
2023/09/08 11:10:06;;;;;;;35.30;32.88;;;30.20;99.90;;;;;;4919664;29;20370;-78
2023/09/08 11:12:33;;;;;;;37.38;34.53;;;30.30;99.90;;;;;;4887172;29;20490;-79
2023/09/08 11:15:04;;;;;;;35.90;33.58;;;30.40;99.90;;;;;;4907090;29;20478;-79
2023/09/08 11:17:32;;;;;;;36.30;33.65;;;30.60;99.90;;;;;;4883784;29;20520;-79
2023/09/08 11:19:58;;;;;;;36.88;33.75;;;30.30;99.90;;;;;;4900914;29;20509;-78
2023/09/08 11:22:26;;;;;;;36.88;34.38;;;30.40;99.90;;;;;;4883822;29;20029;-78
2023/09/08 11:24:53;;;;;;;35.83;33.45;;;30.10;99.90;;;;;;4911689;29;20043;-79
2023/09/08 11:27:21;;;;;;;36.25;33.95;;;30.20;99.90;;;;;;4919345;29;20486;-79
2023/09/08 11:29:47;;;;;;;36.42;33.95;;;30.20;99.90;;;;;;4919416;29;20024;-78
2023/09/08 11:32:14;;;;;;;35.75;33.47;;;30.50;99.90;;;;;;4919360;29;20032;-78
2023/09/08 11:34:41;;;;;;;35.45;33.03;;;30.60;99.90;;;;;;4891627;29;20028;-79
2023/09/08 11:37:13;;;;;;;35.45;33.05;;;30.90;99.90;;;;;;4895976;29;20044;-79
2023/09/08 11:39:40;;;;;;;35.90;33.10;;;31.10;99.90;;;;;;4881704;29;20495;-79
2023/09/08 11:42:08;;;;;;;35.85;33.55;;;31.10;99.90;;;;;;4881541;29;20029;-79
2023/09/08 11:44:36;;;;;;;35.42;33.03;;;31.20;99.90;;;;;;4898618;29;20044;-78
2023/09/08 11:47:04;;;;;;;35.83;33.25;;;31.10;99.90;;;;;;4902103;29;20377;-79
2023/09/08 11:49:38;;;;;;;36.25;33.63;;;31.10;99.90;;;;;;4919072;29;20111;-79
2023/09/08 11:52:05;;;;;;;36.42;33.60;;;31.00;99.90;;;;;;4919039;29;20032;-79
2023/09/08 11:54:33;;;;;;;36.28;33.78;;;30.90;99.90;;;;;;4893796;29;20024;-78
2023/09/08 11:57:01;;;;;;;36.90;34.22;;;30.90;99.90;;;;;;4899945;29;20056;-79
2023/09/08 11:59:31;;;;;;;36.90;34.60;;;30.90;99.90;;;;;;4900580;29;20033;-79
2023/09/08 12:01:58;;;;;;;36.90;34.50;;;31.10;99.90;;;;;;4883969;29;20064;-79
2023/09/08 12:04:25;;;;;;;37.70;35.13;;;31.30;99.90;;;;;;4906595;29;20375;-79
2023/09/08 12:06:58;;;;;;;37.35;34.95;;;31.10;99.90;;;;;;4918828;29;20146;-79
2023/09/08 12:09:25;;;;;;;37.28;34.88;;;30.70;99.90;;;;;;4918586;29;20028;-80
2023/09/08 12:11:51;;;;;;;37.17;34.72;;;30.80;99.90;;;;;;4918624;29;20037;-81
2023/09/08 12:14:18;;;;;;;37.80;35.20;;;30.60;99.90;;;;;;4895577;29;20402;-81
2023/09/08 12:16:44;;;;;;;37.45;34.75;;;30.70;99.90;;;;;;4899626;29;20024;-78
2023/09/08 12:19:30;;;;;;;37.65;34.90;;;30.70;99.90;;;;;;4899390;29;20037;-81
2023/09/08 12:22:02;;;;;;;37.40;34.42;;;30.60;99.90;;;;;;4899548;29;20136;-78
2023/09/08 12:24:57;;;;;;;37.78;34.97;;;30.60;99.90;;;;;;4906637;29;20032;-78
2023/09/08 12:27:24;;;;;;;38.45;35.85;;;30.40;99.90;;;;;;4918299;29;20027;-78
2023/09/08 12:29:54;;;;;;;37.72;35.22;;;30.60;99.90;;;;;;4918168;29;20030;-78
2023/09/08 12:32:21;;;;;;;38.17;35.47;;;30.70;99.90;;;;;;4918144;29;20024;-78
2023/09/08 12:34:48;;;;;;;39.92;36.75;;;30.80;99.90;;;;;;4891334;29;20390;-79
2023/09/08 12:37:14;;;;;;;38.53;35.83;;;30.90;99.90;;;;;;4899091;29;20028;-78
2023/09/08 12:39:40;;;;;;;38.58;35.75;;;30.80;99.90;;;;;;4899171;29;20036;-79
2023/09/08 12:42:07;;;;;;;39.70;35.72;;;30.80;99.90;;;;;;4882327;29;20025;-79
2023/09/08 12:44:33;;;;;;;39.70;36.42;;;30.80;99.90;;;;;;4906598;29;20423;-78
2023/09/08 12:46:59;;;;;;;40.33;37.17;;;30.70;99.90;;;;;;4917847;29;20028;-79
2023/09/08 12:49:26;;;;;;;40.05;36.92;;;30.70;99.90;;;;;;4917876;29;20024;-79
2023/09/08 12:51:52;;;;;;;38.88;35.97;;;30.60;99.90;;;;;;4917847;29;20035;-78
2023/09/08 12:54:19;;;;;;;38.95;35.83;;;30.40;99.90;;;;;;4912278;29;20028;-79
2023/09/08 12:56:45;;;;;;;38.58;35.88;;;30.20;99.90;;;;;;4882123;29;20033;-78
2023/09/08 12:59:11;;;;;;;38.30;35.45;;;30.20;99.90;;;;;;4898814;29;20033;-78
2023/09/08 13:01:38;;;;;;;40.28;36.83;;;30.10;99.90;;;;;;4898828;29;20036;-79
2023/09/08 13:04:05;;;;;;;38.72;35.83;;;30.10;99.90;;;;;;4901884;29;20044;-77
2023/09/08 13:06:32;;;;;;;39.13;36.22;;;30.10;99.90;;;;;;4917525;29;20076;-78
2023/09/08 13:08:59;;;;;;;39.28;36.38;;;30.00;99.90;;;;;;4900546;29;20069;-78
2023/09/08 13:11:26;;;;;;;39.70;36.60;;;29.90;99.90;;;;;;4917535;29;20393;-78